sensor_id;sensor_type;location;lat;lon;timestamp;temperature;humidity
66752;SHT31;53663;42.676;23.238;2023-01-24T00:00:36;4.20;83.66
66752;SHT31;53663;42.676;23.238;2023-01-24T00:03:02;4.21;83.67
66752;SHT31;53663;42.676;23.238;2023-01-24T00:05:28;4.18;83.78
66752;SHT31;53663;42.676;23.238;2023-01-24T00:07:54;4.23;84.22
66752;SHT31;53663;42.676;23.238;2023-01-24T00:10:19;4.27;84.11
66752;SHT31;53663;42.676;23.238;2023-01-24T00:12:45;4.27;83.76
66752;SHT31;53663;42.676;23.238;2023-01-24T00:15:10;4.27;84.07
66752;SHT31;53663;42.676;23.238;2023-01-24T00:17:36;4.25;84.01
66752;SHT31;53663;42.676;23.238;2023-01-24T00:20:03;4.23;84.13
66752;SHT31;53663;42.676;23.238;2023-01-24T00:22:30;4.23;84.45
66752;SHT31;53663;42.676;23.238;2023-01-24T00:24:56;4.17;84.30
66752;SHT31;53663;42.676;23.238;2023-01-24T00:27:21;4.13;84.54
66752;SHT31;53663;42.676;23.238;2023-01-24T00:29:47;4.11;84.46
66752;SHT31;53663;42.676;23.238;2023-01-24T00:32:12;4.21;84.49
66752;SHT31;53663;42.676;23.238;2023-01-24T00:34:38;4.24;84.23
66752;SHT31;53663;42.676;23.238;2023-01-24T00:37:04;4.18;83.91
66752;SHT31;53663;42.676;23.238;2023-01-24T00:39:30;4.20;83.80
66752;SHT31;53663;42.676;23.238;2023-01-24T00:41:55;4.24;83.69
66752;SHT31;53663;42.676;23.238;2023-01-24T00:44:20;4.14;84.06
66752;SHT31;53663;42.676;23.238;2023-01-24T00:46:46;4.21;83.84
66752;SHT31;53663;42.676;23.238;2023-01-24T00:49:12;4.29;83.45
66752;SHT31;53663;42.676;23.238;2023-01-24T00:51:37;4.24;83.69
66752;SHT31;53663;42.676;23.238;2023-01-24T00:54:03;4.16;84.12
66752;SHT31;53663;42.676;23.238;2023-01-24T00:56:28;4.13;84.46
66752;SHT31;53663;42.676;23.238;2023-01-24T00:58:54;4.18;84.24
66752;SHT31;53663;42.676;23.238;2023-01-24T01:01:19;4.20;84.09
66752;SHT31;53663;42.676;23.238;2023-01-24T01:03:45;4.13;84.17
66752;SHT31;53663;42.676;23.238;2023-01-24T01:06:13;4.21;84.05
66752;SHT31;53663;42.676;23.238;2023-01-24T01:08:39;4.14;83.83
66752;SHT31;53663;42.676;23.238;2023-01-24T01:11:06;4.16;83.65
66752;SHT31;53663;42.676;23.238;2023-01-24T01:13:31;4.13;84.01
66752;SHT31;53663;42.676;23.238;2023-01-24T01:16:06;4.14;83.88
66752;SHT31;53663;42.676;23.238;2023-01-24T01:18:32;4.04;84.46
66752;SHT31;53663;42.676;23.238;2023-01-24T01:20:57;4.04;84.36
66752;SHT31;53663;42.676;23.238;2023-01-24T01:23:23;4.03;84.49
66752;SHT31;53663;42.676;23.238;2023-01-24T01:25:48;4.02;84.51
66752;SHT31;53663;42.676;23.238;2023-01-24T01:28:14;4.03;84.54
66752;SHT31;53663;42.676;23.238;2023-01-24T01:30:39;3.96;84.49
66752;SHT31;53663;42.676;23.238;2023-01-24T01:33:05;4.13;83.98
66752;SHT31;53663;42.676;23.238;2023-01-24T01:35:30;4.09;83.82
66752;SHT31;53663;42.676;23.238;2023-01-24T01:37:56;3.97;84.10
66752;SHT31;53663;42.676;23.238;2023-01-24T01:40:21;3.96;84.13
66752;SHT31;53663;42.676;23.238;2023-01-24T01:47:53;3.99;83.94
66752;SHT31;53663;42.676;23.238;2023-01-24T01:50:26;3.90;83.97
66752;SHT31;53663;42.676;23.238;2023-01-24T01:52:56;3.93;83.62
66752;SHT31;53663;42.676;23.238;2023-01-24T01:55:25;3.97;83.59
66752;SHT31;53663;42.676;23.238;2023-01-24T01:57:53;4.04;83.34
66752;SHT31;53663;42.676;23.238;2023-01-24T02:00:22;3.90;83.58
66752;SHT31;53663;42.676;23.238;2023-01-24T02:02:59;3.97;83.40
66752;SHT31;53663;42.676;23.238;2023-01-24T02:05:48;3.99;83.36
66752;SHT31;53663;42.676;23.238;2023-01-24T02:08:19;3.93;83.63
66752;SHT31;53663;42.676;23.238;2023-01-24T02:10:45;3.97;83.66
66752;SHT31;53663;42.676;23.238;2023-01-24T02:13:30;4.10;83.20
66752;SHT31;53663;42.676;23.238;2023-01-24T02:15:56;3.93;83.45
66752;SHT31;53663;42.676;23.238;2023-01-24T02:18:29;3.93;83.51
66752;SHT31;53663;42.676;23.238;2023-01-24T02:20:55;3.90;83.53
66752;SHT31;53663;42.676;23.238;2023-01-24T02:24:00;3.82;83.69
66752;SHT31;53663;42.676;23.238;2023-01-24T02:26:28;3.75;84.11
66752;SHT31;53663;42.676;23.238;2023-01-24T02:29:00;3.82;84.17
66752;SHT31;53663;42.676;23.238;2023-01-24T02:31:27;3.89;83.86
66752;SHT31;53663;42.676;23.238;2023-01-24T02:33:52;3.87;84.09
66752;SHT31;53663;42.676;23.238;2023-01-24T02:38:54;3.93;83.71
66752;SHT31;53663;42.676;23.238;2023-01-24T02:41:27;3.89;83.76
66752;SHT31;53663;42.676;23.238;2023-01-24T02:43:56;3.82;83.72
66752;SHT31;53663;42.676;23.238;2023-01-24T02:46:24;3.83;83.71
66752;SHT31;53663;42.676;23.238;2023-01-24T02:48:50;3.68;84.43
66752;SHT31;53663;42.676;23.238;2023-01-24T02:51:17;3.72;84.46
66752;SHT31;53663;42.676;23.238;2023-01-24T02:54:01;3.61;85.00
66752;SHT31;53663;42.676;23.238;2023-01-24T02:56:26;3.64;84.85
66752;SHT31;53663;42.676;23.238;2023-01-24T02:59:10;3.76;84.26
66752;SHT31;53663;42.676;23.238;2023-01-24T03:01:37;3.75;84.37
66752;SHT31;53663;42.676;23.238;2023-01-24T03:04:02;3.72;84.37
66752;SHT31;53663;42.676;23.238;2023-01-24T03:06:29;3.81;84.11
66752;SHT31;53663;42.676;23.238;2023-01-24T03:08:55;3.71;84.25
66752;SHT31;53663;42.676;23.238;2023-01-24T03:11:34;3.66;84.32
66752;SHT31;53663;42.676;23.238;2023-01-24T03:13:59;3.74;84.18
66752;SHT31;53663;42.676;23.238;2023-01-24T03:16:44;3.68;84.23
66752;SHT31;53663;42.676;23.238;2023-01-24T03:19:28;3.65;84.24
66752;SHT31;53663;42.676;23.238;2023-01-24T03:22:12;3.69;84.40
66752;SHT31;53663;42.676;23.238;2023-01-24T03:24:56;3.71;84.34
66752;SHT31;53663;42.676;23.238;2023-01-24T03:27:40;3.72;84.19
66752;SHT31;53663;42.676;23.238;2023-01-24T03:30:29;3.68;84.11
66752;SHT31;53663;42.676;23.238;2023-01-24T03:33:13;3.65;84.38
66752;SHT31;53663;42.676;23.238;2023-01-24T03:35:57;3.55;84.44
66752;SHT31;53663;42.676;23.238;2023-01-24T03:38:30;3.51;84.72
66752;SHT31;53663;42.676;23.238;2023-01-24T03:41:15;3.59;84.68
66752;SHT31;53663;42.676;23.238;2023-01-24T03:43:41;3.55;84.86
66752;SHT31;53663;42.676;23.238;2023-01-24T03:46:09;3.56;84.50
66752;SHT31;53663;42.676;23.238;2023-01-24T03:48:43;3.48;84.84
66752;SHT31;53663;42.676;23.238;2023-01-24T03:51:08;3.44;84.83
66752;SHT31;53663;42.676;23.238;2023-01-24T03:53:53;3.38;85.08
66752;SHT31;53663;42.676;23.238;2023-01-24T03:56:22;3.37;84.94
66752;SHT31;53663;42.676;23.238;2023-01-24T03:58:54;3.38;84.91
66752;SHT31;53663;42.676;23.238;2023-01-24T04:01:20;3.35;85.05
66752;SHT31;53663;42.676;23.238;2023-01-24T04:04:04;3.34;85.09
66752;SHT31;53663;42.676;23.238;2023-01-24T04:06:30;3.37;84.89
66752;SHT31;53663;42.676;23.238;2023-01-24T04:08:56;3.27;85.06
66752;SHT31;53663;42.676;23.238;2023-01-24T04:11:23;3.27;85.28
66752;SHT31;53663;42.676;23.238;2023-01-24T04:13:53;3.27;85.26
66752;SHT31;53663;42.676;23.238;2023-01-24T04:16:19;3.16;85.51
66752;SHT31;53663;42.676;23.238;2023-01-24T04:19:00;3.18;85.69
66752;SHT31;53663;42.676;23.238;2023-01-24T04:21:26;3.18;85.58
66752;SHT31;53663;42.676;23.238;2023-01-24T04:23:53;3.16;85.62
66752;SHT31;53663;42.676;23.238;2023-01-24T04:26:18;3.20;85.72
66752;SHT31;53663;42.676;23.238;2023-01-24T04:28:44;3.14;85.79
66752;SHT31;53663;42.676;23.238;2023-01-24T04:31:09;3.16;85.66
66752;SHT31;53663;42.676;23.238;2023-01-24T04:33:53;3.16;85.64
66752;SHT31;53663;42.676;23.238;2023-01-24T04:36:19;3.20;85.56
66752;SHT31;53663;42.676;23.238;2023-01-24T04:38:46;3.13;85.64
66752;SHT31;53663;42.676;23.238;2023-01-24T04:41:16;3.16;85.67
66752;SHT31;53663;42.676;23.238;2023-01-24T04:43:42;3.14;85.69
66752;SHT31;53663;42.676;23.238;2023-01-24T04:46:09;3.11;85.68
66752;SHT31;53663;42.676;23.238;2023-01-24T04:48:46;3.17;85.67
66752;SHT31;53663;42.676;23.238;2023-01-24T04:51:12;3.20;85.40
66752;SHT31;53663;42.676;23.238;2023-01-24T04:53:39;3.14;85.57
66752;SHT31;53663;42.676;23.238;2023-01-24T04:56:05;3.18;85.33
66752;SHT31;53663;42.676;23.238;2023-01-24T04:58:33;3.21;85.38
66752;SHT31;53663;42.676;23.238;2023-01-24T05:01:00;3.16;85.35
66752;SHT31;53663;42.676;23.238;2023-01-24T05:03:27;3.08;85.80
66752;SHT31;53663;42.676;23.238;2023-01-24T05:05:53;3.13;85.87
66752;SHT31;53663;42.676;23.238;2023-01-24T05:08:20;3.10;85.76
66752;SHT31;53663;42.676;23.238;2023-01-24T05:10:46;3.08;85.67
66752;SHT31;53663;42.676;23.238;2023-01-24T05:13:11;3.10;85.51
66752;SHT31;53663;42.676;23.238;2023-01-24T05:15:37;3.08;85.29
66752;SHT31;53663;42.676;23.238;2023-01-24T05:18:03;3.01;85.72
66752;SHT31;53663;42.676;23.238;2023-01-24T05:20:29;2.97;85.93
66752;SHT31;53663;42.676;23.238;2023-01-24T05:22:56;3.03;85.35
66752;SHT31;53663;42.676;23.238;2023-01-24T05:25:24;2.96;85.54
66752;SHT31;53663;42.676;23.238;2023-01-24T05:27:50;3.00;85.24
66752;SHT31;53663;42.676;23.238;2023-01-24T05:30:16;2.95;85.32
66752;SHT31;53663;42.676;23.238;2023-01-24T05:32:43;2.89;85.56
66752;SHT31;53663;42.676;23.238;2023-01-24T05:35:09;2.95;85.60
66752;SHT31;53663;42.676;23.238;2023-01-24T05:37:38;2.96;85.27
66752;SHT31;53663;42.676;23.238;2023-01-24T05:40:06;2.95;85.51
66752;SHT31;53663;42.676;23.238;2023-01-24T05:42:32;2.96;85.30
66752;SHT31;53663;42.676;23.238;2023-01-24T05:44:57;2.86;85.59
66752;SHT31;53663;42.676;23.238;2023-01-24T05:47:23;2.87;85.73
66752;SHT31;53663;42.676;23.238;2023-01-24T05:49:49;2.87;85.93
66752;SHT31;53663;42.676;23.238;2023-01-24T05:52:16;2.89;85.83
66752;SHT31;53663;42.676;23.238;2023-01-24T05:54:52;2.87;86.00
66752;SHT31;53663;42.676;23.238;2023-01-24T05:57:27;2.82;86.17
66752;SHT31;53663;42.676;23.238;2023-01-24T06:00:12;2.83;86.00
66752;SHT31;53663;42.676;23.238;2023-01-24T06:02:45;2.89;85.81
66752;SHT31;53663;42.676;23.238;2023-01-24T06:05:11;2.90;85.93
66752;SHT31;53663;42.676;23.238;2023-01-24T06:07:37;2.90;85.77
66752;SHT31;53663;42.676;23.238;2023-01-24T06:10:03;2.89;85.82
66752;SHT31;53663;42.676;23.238;2023-01-24T06:12:37;2.90;85.94
66752;SHT31;53663;42.676;23.238;2023-01-24T06:15:03;2.85;85.98
66752;SHT31;53663;42.676;23.238;2023-01-24T06:17:28;2.79;86.26
66752;SHT31;53663;42.676;23.238;2023-01-24T06:19:54;2.99;87.86
66752;SHT31;53663;42.676;23.238;2023-01-24T06:22:36;2.95;85.85
66752;SHT31;53663;42.676;23.238;2023-01-24T06:25:14;2.90;86.16
66752;SHT31;53663;42.676;23.238;2023-01-24T06:27:45;2.90;86.36
66752;SHT31;53663;42.676;23.238;2023-01-24T06:30:12;2.83;86.32
66752;SHT31;53663;42.676;23.238;2023-01-24T06:38:22;2.71;86.86
66752;SHT31;53663;42.676;23.238;2023-01-24T06:41:00;2.50;87.32
66752;SHT31;53663;42.676;23.238;2023-01-24T06:43:27;2.53;87.37
66752;SHT31;53663;42.676;23.238;2023-01-24T06:45:53;2.46;87.43
66752;SHT31;53663;42.676;23.238;2023-01-24T06:48:19;2.45;87.47
66752;SHT31;53663;42.676;23.238;2023-01-24T06:50:45;2.28;87.73
66752;SHT31;53663;42.676;23.238;2023-01-24T06:53:10;2.27;88.01
66752;SHT31;53663;42.676;23.238;2023-01-24T06:55:37;2.25;88.64
66752;SHT31;53663;42.676;23.238;2023-01-24T06:58:03;2.22;88.23
66752;SHT31;53663;42.676;23.238;2023-01-24T07:00:29;2.20;88.15
66752;SHT31;53663;42.676;23.238;2023-01-24T07:03:05;2.14;88.37
66752;SHT31;53663;42.676;23.238;2023-01-24T07:05:35;2.27;88.49
66752;SHT31;53663;42.676;23.238;2023-01-24T07:08:02;2.35;88.72
66752;SHT31;53663;42.676;23.238;2023-01-24T07:10:28;2.27;88.09
66752;SHT31;53663;42.676;23.238;2023-01-24T07:12:54;2.32;87.67
66752;SHT31;53663;42.676;23.238;2023-01-24T07:15:20;2.35;87.85
66752;SHT31;53663;42.676;23.238;2023-01-24T07:17:46;2.32;87.66
66752;SHT31;53663;42.676;23.238;2023-01-24T07:20:12;2.22;87.70
66752;SHT31;53663;42.676;23.238;2023-01-24T07:22:39;2.14;88.05
66752;SHT31;53663;42.676;23.238;2023-01-24T07:25:10;2.15;88.20
66752;SHT31;53663;42.676;23.238;2023-01-24T07:27:37;2.25;88.07
66752;SHT31;53663;42.676;23.238;2023-01-24T07:30:03;2.15;88.19
66752;SHT31;53663;42.676;23.238;2023-01-24T07:32:29;2.18;88.28
66752;SHT31;53663;42.676;23.238;2023-01-24T07:34:55;2.22;88.12
66752;SHT31;53663;42.676;23.238;2023-01-24T07:37:20;2.10;88.47
66752;SHT31;53663;42.676;23.238;2023-01-24T07:39:48;2.24;87.95
66752;SHT31;53663;42.676;23.238;2023-01-24T07:42:14;2.25;87.89
66752;SHT31;53663;42.676;23.238;2023-01-24T07:44:39;2.20;87.85
66752;SHT31;53663;42.676;23.238;2023-01-24T07:47:05;2.18;87.85
66752;SHT31;53663;42.676;23.238;2023-01-24T07:49:30;2.21;88.08
66752;SHT31;53663;42.676;23.238;2023-01-24T07:51:56;2.15;88.41
66752;SHT31;53663;42.676;23.238;2023-01-24T07:54:21;2.24;88.07
66752;SHT31;53663;42.676;23.238;2023-01-24T07:56:47;2.18;87.81
66752;SHT31;53663;42.676;23.238;2023-01-24T07:59:13;2.11;88.22
66752;SHT31;53663;42.676;23.238;2023-01-24T08:01:39;2.06;88.44
66752;SHT31;53663;42.676;23.238;2023-01-24T08:04:04;2.01;88.82
66752;SHT31;53663;42.676;23.238;2023-01-24T08:06:29;2.00;88.71
66752;SHT31;53663;42.676;23.238;2023-01-24T08:08:55;1.90;89.14
66752;SHT31;53663;42.676;23.238;2023-01-24T08:11:20;2.00;89.37
66752;SHT31;53663;42.676;23.238;2023-01-24T08:13:47;2.15;88.52
66752;SHT31;53663;42.676;23.238;2023-01-24T08:16:13;2.13;88.63
66752;SHT31;53663;42.676;23.238;2023-01-24T08:18:39;2.17;88.42
66752;SHT31;53663;42.676;23.238;2023-01-24T08:21:06;2.08;88.90
66752;SHT31;53663;42.676;23.238;2023-01-24T08:23:32;2.08;88.97
66752;SHT31;53663;42.676;23.238;2023-01-24T08:25:58;2.20;88.53
66752;SHT31;53663;42.676;23.238;2023-01-24T08:28:25;2.14;88.45
66752;SHT31;53663;42.676;23.238;2023-01-24T08:30:50;2.07;88.83
66752;SHT31;53663;42.676;23.238;2023-01-24T08:33:16;2.15;89.17
66752;SHT31;53663;42.676;23.238;2023-01-24T08:35:42;2.06;88.66
66752;SHT31;53663;42.676;23.238;2023-01-24T08:38:09;2.07;88.89
66752;SHT31;53663;42.676;23.238;2023-01-24T08:40:34;2.20;88.19
66752;SHT31;53663;42.676;23.238;2023-01-24T08:43:00;2.15;88.35
66752;SHT31;53663;42.676;23.238;2023-01-24T08:45:26;2.24;88.18
66752;SHT31;53663;42.676;23.238;2023-01-24T08:47:52;2.11;88.29
66752;SHT31;53663;42.676;23.238;2023-01-24T08:50:19;2.13;88.52
66752;SHT31;53663;42.676;23.238;2023-01-24T08:52:46;2.07;88.85
66752;SHT31;53663;42.676;23.238;2023-01-24T08:55:12;2.08;88.69
66752;SHT31;53663;42.676;23.238;2023-01-24T08:57:37;2.06;88.95
66752;SHT31;53663;42.676;23.238;2023-01-24T09:00:03;2.10;88.96
66752;SHT31;53663;42.676;23.238;2023-01-24T09:02:29;2.20;88.35
66752;SHT31;53663;42.676;23.238;2023-01-24T09:04:57;2.14;88.44
66752;SHT31;53663;42.676;23.238;2023-01-24T09:07:23;2.06;88.48
66752;SHT31;53663;42.676;23.238;2023-01-24T09:09:49;2.14;88.51
66752;SHT31;53663;42.676;23.238;2023-01-24T09:12:15;2.13;88.80
66752;SHT31;53663;42.676;23.238;2023-01-24T09:14:41;2.04;89.15
66752;SHT31;53663;42.676;23.238;2023-01-24T09:17:06;2.14;89.20
66752;SHT31;53663;42.676;23.238;2023-01-24T09:19:32;2.10;89.21
66752;SHT31;53663;42.676;23.238;2023-01-24T09:21:57;2.22;88.44
66752;SHT31;53663;42.676;23.238;2023-01-24T09:24:23;2.20;88.57
66752;SHT31;53663;42.676;23.238;2023-01-24T09:26:49;2.14;88.92
66752;SHT31;53663;42.676;23.238;2023-01-24T09:29:14;2.20;89.11
66752;SHT31;53663;42.676;23.238;2023-01-24T09:31:40;2.31;88.45
66752;SHT31;53663;42.676;23.238;2023-01-24T09:34:05;2.32;87.98
66752;SHT31;53663;42.676;23.238;2023-01-24T09:36:31;2.29;88.17
66752;SHT31;53663;42.676;23.238;2023-01-24T09:38:57;2.20;88.32
66752;SHT31;53663;42.676;23.238;2023-01-24T09:44:46;2.13;88.58
66752;SHT31;53663;42.676;23.238;2023-01-24T09:47:16;2.28;88.55
66752;SHT31;53663;42.676;23.238;2023-01-24T09:49:49;2.27;88.16
66752;SHT31;53663;42.676;23.238;2023-01-24T09:52:25;2.35;87.68
66752;SHT31;53663;42.676;23.238;2023-01-24T09:55:08;2.37;87.33
66752;SHT31;53663;42.676;23.238;2023-01-24T10:00:36;2.44;88.16
66752;SHT31;53663;42.676;23.238;2023-01-24T10:03:12;2.50;87.43
66752;SHT31;53663;42.676;23.238;2023-01-24T10:05:40;2.55;87.29
66752;SHT31;53663;42.676;23.238;2023-01-24T10:20:02;2.39;88.83
66752;SHT31;53663;42.676;23.238;2023-01-24T10:23:04;2.53;88.56
66752;SHT31;53663;42.676;23.238;2023-01-24T10:25:53;2.56;87.99
66752;SHT31;53663;42.676;23.238;2023-01-24T10:28:27;2.63;88.11
66752;SHT31;53663;42.676;23.238;2023-01-24T10:30:57;2.67;87.20
66752;SHT31;53663;42.676;23.238;2023-01-24T10:33:29;2.63;87.58
66752;SHT31;53663;42.676;23.238;2023-01-24T10:36:00;2.72;87.29
66752;SHT31;53663;42.676;23.238;2023-01-24T10:38:27;2.67;87.65
66752;SHT31;53663;42.676;23.238;2023-01-24T10:41:09;2.72;87.18
66752;SHT31;53663;42.676;23.238;2023-01-24T10:43:36;2.58;87.16
66752;SHT31;53663;42.676;23.238;2023-01-24T10:46:17;2.62;87.02
66752;SHT31;53663;42.676;23.238;2023-01-24T10:48:53;2.58;86.70
66752;SHT31;53663;42.676;23.238;2023-01-24T10:51:22;2.58;87.68
66752;SHT31;53663;42.676;23.238;2023-01-24T10:53:48;2.52;87.67
66752;SHT31;53663;42.676;23.238;2023-01-24T10:56:18;2.62;87.42
66752;SHT31;53663;42.676;23.238;2023-01-24T10:59:04;2.50;87.73
66752;SHT31;53663;42.676;23.238;2023-01-24T11:01:36;2.56;87.81
66752;SHT31;53663;42.676;23.238;2023-01-24T11:04:25;2.67;86.38
66752;SHT31;53663;42.676;23.238;2023-01-24T11:06:51;2.69;85.88
66752;SHT31;53663;42.676;23.238;2023-01-24T11:09:18;2.66;86.03
66752;SHT31;53663;42.676;23.238;2023-01-24T11:11:54;2.65;86.34
66752;SHT31;53663;42.676;23.238;2023-01-24T11:14:20;2.66;86.43
66752;SHT31;53663;42.676;23.238;2023-01-24T11:16:50;2.62;86.55
66752;SHT31;53663;42.676;23.238;2023-01-24T11:19:32;2.66;87.06
66752;SHT31;53663;42.676;23.238;2023-01-24T11:22:18;2.62;86.85
66752;SHT31;53663;42.676;23.238;2023-01-24T11:24:45;2.49;87.49
66752;SHT31;53663;42.676;23.238;2023-01-24T11:27:18;2.59;87.16
66752;SHT31;53663;42.676;23.238;2023-01-24T11:29:45;2.48;87.69
66752;SHT31;53663;42.676;23.238;2023-01-24T11:32:42;2.50;87.15
66752;SHT31;53663;42.676;23.238;2023-01-24T11:35:24;2.50;86.52
66752;SHT31;53663;42.676;23.238;2023-01-24T11:38:02;2.48;86.65
66752;SHT31;53663;42.676;23.238;2023-01-24T11:40:43;2.48;86.29
66752;SHT31;53663;42.676;23.238;2023-01-24T11:46:19;2.41;86.98
66752;SHT31;53663;42.676;23.238;2023-01-24T11:48:53;2.50;85.98
66752;SHT31;53663;42.676;23.238;2023-01-24T11:54:09;2.45;86.28
66752;SHT31;53663;42.676;23.238;2023-01-24T12:16:22;2.48;87.32
66752;SHT31;53663;42.676;23.238;2023-01-24T12:21:37;2.38;87.91
66752;SHT31;53663;42.676;23.238;2023-01-24T12:24:11;2.45;87.03
66752;SHT31;53663;42.676;23.238;2023-01-24T12:26:44;2.46;86.38
66752;SHT31;53663;42.676;23.238;2023-01-24T12:29:15;2.37;86.93
66752;SHT31;53663;42.676;23.238;2023-01-24T12:32:04;2.45;86.65
66752;SHT31;53663;42.676;23.238;2023-01-24T12:34:46;2.46;86.69
66752;SHT31;53663;42.676;23.238;2023-01-24T12:37:23;2.38;86.87
66752;SHT31;53663;42.676;23.238;2023-01-24T12:42:27;2.41;86.72
66752;SHT31;53663;42.676;23.238;2023-01-24T12:45:05;2.42;86.21
66752;SHT31;53663;42.676;23.238;2023-01-24T12:47:53;2.34;87.40
66752;SHT31;53663;42.676;23.238;2023-01-24T12:50:30;2.48;85.84
66752;SHT31;53663;42.676;23.238;2023-01-24T12:53:17;2.39;86.69
66752;SHT31;53663;42.676;23.238;2023-01-24T12:56:05;2.42;85.88
66752;SHT31;53663;42.676;23.238;2023-01-24T12:58:39;2.39;86.63
66752;SHT31;53663;42.676;23.238;2023-01-24T13:06:16;2.52;86.44
66752;SHT31;53663;42.676;23.238;2023-01-24T13:11:41;2.50;86.45
66752;SHT31;53663;42.676;23.238;2023-01-24T13:14:21;2.42;86.62
66752;SHT31;53663;42.676;23.238;2023-01-24T13:32:57;2.45;85.77
66752;SHT31;53663;42.676;23.238;2023-01-24T13:35:26;2.41;85.97
66752;SHT31;53663;42.676;23.238;2023-01-24T13:38:05;2.44;85.97
66752;SHT31;53663;42.676;23.238;2023-01-24T13:40:39;2.44;86.14
66752;SHT31;53663;42.676;23.238;2023-01-24T13:46:03;2.35;85.56
66752;SHT31;53663;42.676;23.238;2023-01-24T13:54:01;2.38;84.62
66752;SHT31;53663;42.676;23.238;2023-01-24T13:56:27;2.46;84.56
66752;SHT31;53663;42.676;23.238;2023-01-24T13:58:53;2.41;84.69
66752;SHT31;53663;42.676;23.238;2023-01-24T14:01:19;2.50;84.30
66752;SHT31;53663;42.676;23.238;2023-01-24T14:04:00;2.55;84.06
66752;SHT31;53663;42.676;23.238;2023-01-24T14:06:38;2.48;84.73
66752;SHT31;53663;42.676;23.238;2023-01-24T14:09:31;2.50;84.49
66752;SHT31;53663;42.676;23.238;2023-01-24T14:12:00;2.44;84.73
66752;SHT31;53663;42.676;23.238;2023-01-24T14:14:32;2.41;84.43
66752;SHT31;53663;42.676;23.238;2023-01-24T14:17:04;2.58;83.52
66752;SHT31;53663;42.676;23.238;2023-01-24T14:19:33;2.58;83.76
66752;SHT31;53663;42.676;23.238;2023-01-24T14:22:21;2.41;84.45
66752;SHT31;53663;42.676;23.238;2023-01-24T14:24:54;2.49;84.09
66752;SHT31;53663;42.676;23.238;2023-01-24T14:27:47;2.46;84.37
66752;SHT31;53663;42.676;23.238;2023-01-24T14:32:53;2.52;83.57
66752;SHT31;53663;42.676;23.238;2023-01-24T14:35:22;2.48;83.31
66752;SHT31;53663;42.676;23.238;2023-01-24T14:37:49;2.45;83.97
66752;SHT31;53663;42.676;23.238;2023-01-24T14:42:41;2.60;83.68
66752;SHT31;53663;42.676;23.238;2023-01-24T14:45:13;2.60;83.66
66752;SHT31;53663;42.676;23.238;2023-01-24T14:47:39;2.58;83.10
66752;SHT31;53663;42.676;23.238;2023-01-24T14:50:23;2.58;83.78
66752;SHT31;53663;42.676;23.238;2023-01-24T14:52:49;2.58;83.66
66752;SHT31;53663;42.676;23.238;2023-01-24T14:57:43;2.52;83.27
66752;SHT31;53663;42.676;23.238;2023-01-24T15:02:52;2.39;83.52
66752;SHT31;53663;42.676;23.238;2023-01-24T15:05:33;2.45;82.80
66752;SHT31;53663;42.676;23.238;2023-01-24T15:08:00;2.22;83.97
66752;SHT31;53663;42.676;23.238;2023-01-24T15:10:36;2.22;84.61
66752;SHT31;53663;42.676;23.238;2023-01-24T15:13:09;2.38;83.66
66752;SHT31;53663;42.676;23.238;2023-01-24T15:15:35;2.45;83.01
66752;SHT31;53663;42.676;23.238;2023-01-24T15:18:23;2.37;83.75
66752;SHT31;53663;42.676;23.238;2023-01-24T15:20:50;2.37;83.57
66752;SHT31;53663;42.676;23.238;2023-01-24T15:23:19;2.38;83.50
66752;SHT31;53663;42.676;23.238;2023-01-24T15:25:46;2.35;83.77
66752;SHT31;53663;42.676;23.238;2023-01-24T15:28:29;2.28;84.21
66752;SHT31;53663;42.676;23.238;2023-01-24T15:30:59;2.38;83.92
66752;SHT31;53663;42.676;23.238;2023-01-24T15:33:42;2.38;84.38
66752;SHT31;53663;42.676;23.238;2023-01-24T15:38:51;2.38;84.16
66752;SHT31;53663;42.676;23.238;2023-01-24T15:41:24;2.46;83.75
66752;SHT31;53663;42.676;23.238;2023-01-24T15:44:11;2.59;82.80
66752;SHT31;53663;42.676;23.238;2023-01-24T15:46:40;2.55;82.95
66752;SHT31;53663;42.676;23.238;2023-01-24T15:52:19;2.35;83.38
66752;SHT31;53663;42.676;23.238;2023-01-24T15:54:52;2.39;83.89
66752;SHT31;53663;42.676;23.238;2023-01-24T15:57:34;2.29;84.43
66752;SHT31;53663;42.676;23.238;2023-01-24T16:02:34;2.48;83.61
66752;SHT31;53663;42.676;23.238;2023-01-24T16:05:00;2.44;83.70
66752;SHT31;53663;42.676;23.238;2023-01-24T16:07:26;2.35;83.49
66752;SHT31;53663;42.676;23.238;2023-01-24T16:09:52;2.35;84.02
66752;SHT31;53663;42.676;23.238;2023-01-24T16:12:21;2.39;83.69
66752;SHT31;53663;42.676;23.238;2023-01-24T16:14:50;2.31;83.64
66752;SHT31;53663;42.676;23.238;2023-01-24T16:17:18;2.39;83.13
66752;SHT31;53663;42.676;23.238;2023-01-24T16:19:44;2.29;83.54
66752;SHT31;53663;42.676;23.238;2023-01-24T16:22:10;2.34;82.90
66752;SHT31;53663;42.676;23.238;2023-01-24T16:24:35;2.31;83.19
66752;SHT31;53663;42.676;23.238;2023-01-24T16:27:01;2.29;83.61
66752;SHT31;53663;42.676;23.238;2023-01-24T16:29:29;2.24;83.60
66752;SHT31;53663;42.676;23.238;2023-01-24T16:31:54;2.32;83.71
66752;SHT31;53663;42.676;23.238;2023-01-24T16:34:20;2.15;84.53
66752;SHT31;53663;42.676;23.238;2023-01-24T16:36:46;2.13;84.51
66752;SHT31;53663;42.676;23.238;2023-01-24T16:39:20;2.18;84.43
66752;SHT31;53663;42.676;23.238;2023-01-24T16:41:46;2.27;84.53
66752;SHT31;53663;42.676;23.238;2023-01-24T16:44:13;2.32;83.00
66752;SHT31;53663;42.676;23.238;2023-01-24T16:46:39;2.31;83.27
66752;SHT31;53663;42.676;23.238;2023-01-24T16:49:05;2.17;84.20
66752;SHT31;53663;42.676;23.238;2023-01-24T16:51:31;2.22;83.86
66752;SHT31;53663;42.676;23.238;2023-01-24T16:53:57;2.24;83.73
66752;SHT31;53663;42.676;23.238;2023-01-24T16:56:23;2.24;83.58
66752;SHT31;53663;42.676;23.238;2023-01-24T16:58:54;2.25;84.19
66752;SHT31;53663;42.676;23.238;2023-01-24T17:01:20;2.39;82.79
66752;SHT31;53663;42.676;23.238;2023-01-24T17:03:49;2.38;83.27
66752;SHT31;53663;42.676;23.238;2023-01-24T17:06:15;2.37;83.77
66752;SHT31;53663;42.676;23.238;2023-01-24T17:08:40;2.25;83.99
66752;SHT31;53663;42.676;23.238;2023-01-24T17:11:08;2.34;84.06
66752;SHT31;53663;42.676;23.238;2023-01-24T17:13:35;2.38;84.12
66752;SHT31;53663;42.676;23.238;2023-01-24T17:16:05;2.46;83.18
66752;SHT31;53663;42.676;23.238;2023-01-24T17:18:31;2.34;83.64
66752;SHT31;53663;42.676;23.238;2023-01-24T17:21:03;2.29;83.55
66752;SHT31;53663;42.676;23.238;2023-01-24T17:23:33;2.28;83.46
66752;SHT31;53663;42.676;23.238;2023-01-24T17:26:11;2.22;83.51
66752;SHT31;53663;42.676;23.238;2023-01-24T17:28:38;2.29;83.27
66752;SHT31;53663;42.676;23.238;2023-01-24T17:31:22;2.29;82.95
66752;SHT31;53663;42.676;23.238;2023-01-24T17:33:48;2.45;82.06
66752;SHT31;53663;42.676;23.238;2023-01-24T17:36:14;2.35;82.33
66752;SHT31;53663;42.676;23.238;2023-01-24T17:38:41;2.28;82.34
66752;SHT31;53663;42.676;23.238;2023-01-24T17:41:17;2.41;82.36